createdAt,value
2022-11-14T00:00:59.941Z,23.25
2022-11-14T00:03:26.573Z,20.73
2022-11-14T00:05:53.182Z,18.67
2022-11-14T00:08:27.718Z,22.83
2022-11-14T00:10:54.681Z,22.45
2022-11-14T00:13:21.250Z,22.13
2022-11-14T00:15:55.363Z,22.30
2022-11-14T00:18:22.251Z,22.50
2022-11-14T00:20:53.047Z,22.55
2022-11-14T00:23:20.960Z,21.60
2022-11-14T00:25:48.161Z,18.48
2022-11-14T00:28:14.997Z,24.23
2022-11-14T00:30:41.558Z,22.85
2022-11-14T00:33:08.206Z,22.75
2022-11-14T00:35:34.797Z,22.85
2022-11-14T00:38:01.390Z,23.42
2022-11-14T00:40:28.028Z,23.25
2022-11-14T00:42:54.771Z,22.95
2022-11-14T00:45:21.847Z,24.95
2022-11-14T00:47:51.074Z,29.70
2022-11-14T00:50:17.738Z,23.83
2022-11-14T00:52:44.345Z,24.08
2022-11-14T00:55:10.982Z,21.58
2022-11-14T00:57:37.561Z,20.63
2022-11-14T01:00:05.976Z,21.45
2022-11-14T01:02:32.583Z,22.83
2022-11-14T01:04:59.375Z,20.63
2022-11-14T01:07:25.953Z,22.17
2022-11-14T01:09:52.558Z,24.15
2022-11-14T01:12:19.243Z,20.45
2022-11-14T01:14:45.905Z,21.17
2022-11-14T01:17:12.629Z,21.05
2022-11-14T01:19:39.291Z,20.35
2022-11-14T01:22:06.629Z,21.65
2022-11-14T01:24:34.244Z,20.48
2022-11-14T01:27:01.152Z,22.42
2022-11-14T01:29:28.295Z,21.10
2022-11-14T01:31:55.189Z,21.30
2022-11-14T01:34:22.601Z,26.23
2022-11-14T01:36:49.210Z,26.10
2022-11-14T01:39:15.957Z,24.50
2022-11-14T01:41:42.551Z,25.38
2022-11-14T01:44:48.332Z,21.85
2022-11-14T01:47:28.715Z,22.05
2022-11-14T01:49:59.252Z,21.83
2022-11-14T01:52:30.981Z,20.80
2022-11-14T01:55:06.044Z,22.95
2022-11-14T01:57:40.672Z,24.83
2022-11-14T02:00:11.302Z,23.90
2022-11-14T02:02:38.825Z,23.10
2022-11-14T02:05:12.760Z,25.08
2022-11-14T02:07:40.716Z,26.77
2022-11-14T02:10:19.117Z,22.50
2022-11-14T02:12:46.981Z,25.55
2022-11-14T02:15:14.734Z,24.50
2022-11-14T02:17:42.823Z,19.98
2022-11-14T02:20:12.300Z,21.05
2022-11-14T02:22:40.729Z,24.75
2022-11-14T02:25:10.001Z,25.80
2022-11-14T02:27:39.188Z,23.23
2022-11-14T02:30:07.978Z,30.90
2022-11-14T02:32:56.997Z,23.58
2022-11-14T02:35:21.299Z,23.33
2022-11-14T02:37:47.865Z,21.50
2022-11-14T02:40:14.783Z,24.90
2022-11-14T02:42:41.567Z,21.92
2022-11-14T02:45:09.392Z,27.05
2022-11-14T02:47:35.975Z,22.45
2022-11-14T02:50:02.771Z,26.83
2022-11-14T02:52:29.395Z,23.98
2022-11-14T02:54:55.985Z,22.88
2022-11-14T02:57:22.606Z,21.77
2022-11-14T02:59:49.228Z,25.55
2022-11-14T03:02:15.851Z,23.25
2022-11-14T03:04:42.489Z,20.48
2022-11-14T03:07:09.110Z,19.13
2022-11-14T03:09:35.758Z,22.85
2022-11-14T03:12:02.329Z,20.65
2022-11-14T03:14:31.392Z,22.05
2022-11-14T03:16:58.385Z,20.48
2022-11-14T03:19:25.045Z,25.83
2022-11-14T03:21:51.614Z,23.35
2022-11-14T03:24:18.423Z,20.08
2022-11-14T03:26:45.199Z,27.17
2022-11-14T03:29:11.803Z,23.77
2022-11-14T03:31:38.400Z,24.45
2022-11-14T03:34:04.997Z,26.35
2022-11-14T03:36:31.672Z,23.90
2022-11-14T03:38:58.274Z,27.52
2022-11-14T03:41:24.857Z,31.45
2022-11-14T03:43:51.432Z,26.85
2022-11-14T03:46:18.179Z,30.67
2022-11-14T03:48:44.761Z,27.60
2022-11-14T03:51:11.345Z,30.25
2022-11-14T03:53:37.945Z,27.45
2022-11-14T03:56:04.985Z,29.80
2022-11-14T03:58:32.091Z,27.05
2022-11-14T04:00:59.238Z,25.48
2022-11-14T04:03:25.922Z,21.10
2022-11-14T04:05:52.650Z,26.13
2022-11-14T04:08:19.221Z,25.00
2022-11-14T04:10:48.658Z,25.33
2022-11-14T04:13:15.910Z,28.00
2022-11-14T04:15:42.530Z,21.20
2022-11-14T04:18:09.114Z,31.60
2022-11-14T04:20:35.754Z,20.65
2022-11-14T04:23:02.345Z,31.48
2022-11-14T04:25:28.973Z,28.90
2022-11-14T04:27:55.660Z,24.20
2022-11-14T04:30:22.280Z,26.58
2022-11-14T04:32:49.159Z,27.35
2022-11-14T04:35:16.106Z,21.77
2022-11-14T04:37:42.775Z,27.75
2022-11-14T04:40:09.836Z,24.13
2022-11-14T04:42:36.455Z,24.20
2022-11-14T04:45:03.644Z,24.58
2022-11-14T04:47:30.385Z,23.63
2022-11-14T04:49:56.977Z,24.65
2022-11-14T04:52:23.571Z,21.98
2022-11-14T04:54:50.166Z,24.10
2022-11-14T04:57:17.772Z,22.55
2022-11-14T04:59:44.595Z,23.33
2022-11-14T05:02:11.321Z,25.25
2022-11-14T05:04:38.185Z,21.25
2022-11-14T05:07:04.868Z,27.10
2022-11-14T05:09:31.658Z,23.88
2022-11-14T05:11:58.343Z,22.65
2022-11-14T05:14:25.021Z,23.90
2022-11-14T05:16:51.583Z,22.70
2022-11-14T05:19:18.199Z,20.77
2022-11-14T05:21:44.817Z,16.90
2022-11-14T05:24:11.464Z,19.98
2022-11-14T05:26:38.278Z,22.33
2022-11-14T05:29:05.243Z,20.15
2022-11-14T05:31:31.825Z,20.75
2022-11-14T05:33:58.429Z,20.48
2022-11-14T05:36:25.119Z,20.13
2022-11-14T05:38:52.214Z,27.90
2022-11-14T05:41:20.181Z,20.80
2022-11-14T05:43:47.134Z,18.50
2022-11-14T05:46:15.710Z,23.30
2022-11-14T05:48:42.991Z,21.98
2022-11-14T05:51:13.341Z,21.73
2022-11-14T05:53:40.964Z,19.60
2022-11-14T05:56:11.501Z,22.55
2022-11-14T05:58:38.459Z,20.00
2022-11-14T06:01:16.726Z,20.77
2022-11-14T06:03:45.734Z,22.77
2022-11-14T06:06:18.854Z,21.30
2022-11-14T06:08:45.601Z,22.10
2022-11-14T06:11:18.917Z,20.63
2022-11-14T06:13:45.664Z,22.38
2022-11-14T06:16:17.986Z,21.90
2022-11-14T06:18:45.851Z,21.00
2022-11-14T06:21:16.194Z,20.42
2022-11-14T06:23:43.771Z,25.80
2022-11-14T06:26:22.740Z,27.42
2022-11-14T06:28:50.815Z,25.65
2022-11-14T06:31:18.682Z,27.63
2022-11-14T06:33:46.097Z,25.23
2022-11-14T06:36:13.855Z,28.30
2022-11-14T06:38:41.709Z,32.65
2022-11-14T06:41:09.724Z,26.35
2022-11-14T06:43:38.818Z,32.22
2022-11-14T06:46:06.893Z,43.55
2022-11-14T06:48:34.101Z,46.78
2022-11-14T06:51:01.735Z,45.40
2022-11-14T06:53:30.419Z,38.75
2022-11-14T06:56:02.294Z,31.20
2022-11-14T06:58:31.172Z,36.83
2022-11-14T07:01:11.445Z,28.73
2022-11-14T07:03:38.036Z,29.75
2022-11-14T07:06:12.600Z,26.67
2022-11-14T07:08:39.260Z,30.83
2022-11-14T07:11:08.245Z,34.58
2022-11-14T07:13:35.900Z,25.50
2022-11-14T07:16:03.596Z,30.15
2022-11-14T07:18:33.894Z,30.42
2022-11-14T07:21:05.887Z,30.65
2022-11-14T07:23:33.964Z,29.58
2022-11-14T07:26:02.656Z,30.92
2022-11-14T07:28:29.933Z,30.13
2022-11-14T07:30:56.789Z,29.73
2022-11-14T07:33:23.421Z,29.88
2022-11-14T07:35:51.290Z,35.50
2022-11-14T07:38:17.930Z,29.55
2022-11-14T07:40:59.509Z,30.80
2022-11-14T07:43:26.775Z,29.98
2022-11-14T07:45:53.437Z,30.85
2022-11-14T07:48:21.830Z,26.95
2022-11-14T07:50:48.445Z,29.83
2022-11-14T07:53:16.127Z,26.55
2022-11-14T07:55:42.721Z,27.80
2022-11-14T07:58:09.461Z,25.30
2022-11-14T08:00:36.551Z,31.75
2022-11-14T08:03:03.334Z,32.33
2022-11-14T08:05:29.988Z,33.30
2022-11-14T08:07:56.591Z,27.15
2022-11-14T08:10:23.223Z,26.95
2022-11-14T08:13:29.858Z,28.48
2022-11-14T08:15:47.845Z,28.10
2022-11-14T08:18:14.566Z,32.78
2022-11-14T08:20:41.206Z,28.75
2022-11-14T08:23:07.840Z,26.25
2022-11-14T08:25:34.520Z,29.13
2022-11-14T08:28:01.326Z,26.23
2022-11-14T08:30:28.547Z,28.80
2022-11-14T08:32:55.162Z,28.92
2022-11-14T08:35:22.830Z,27.15
2022-11-14T08:37:49.487Z,30.20
2022-11-14T08:40:16.270Z,32.72
2022-11-14T08:42:42.907Z,28.52
2022-11-14T08:45:09.817Z,30.75
2022-11-14T08:47:36.444Z,27.50
2022-11-14T08:50:03.381Z,28.90
2022-11-14T08:52:30.066Z,29.75
2022-11-14T08:54:56.685Z,30.08
2022-11-14T08:57:23.333Z,25.23
2022-11-14T08:59:50.005Z,27.67
2022-11-14T09:02:16.609Z,28.02
2022-11-14T09:04:43.340Z,28.65
2022-11-14T09:07:10.007Z,32.20
2022-11-14T09:09:36.731Z,31.10
2022-11-14T09:12:03.499Z,28.55
2022-11-14T09:14:30.113Z,24.17
2022-11-14T09:16:56.683Z,25.23
2022-11-14T09:19:23.254Z,26.27
2022-11-14T09:21:50.183Z,23.05
2022-11-14T09:24:16.817Z,22.98
2022-11-14T09:26:44.439Z,22.60
2022-11-14T09:29:11.078Z,21.80
2022-11-14T09:31:37.707Z,20.13
2022-11-14T09:34:04.361Z,21.35
2022-11-14T09:36:30.945Z,21.42
2022-11-14T09:38:57.541Z,22.08
2022-11-14T09:41:54.027Z,21.85
2022-11-14T09:44:41.990Z,21.40
2022-11-14T09:47:18.111Z,19.92
2022-11-14T09:49:51.250Z,22.77
2022-11-14T09:52:37.962Z,20.40
2022-11-14T09:55:14.080Z,18.65
2022-11-14T09:57:45.457Z,19.20
2022-11-14T10:00:13.520Z,18.33
2022-11-14T10:02:41.275Z,23.80
2022-11-14T10:05:23.932Z,20.67
2022-11-14T10:08:15.246Z,18.85
2022-11-14T10:10:53.494Z,19.20
2022-11-14T10:13:47.147Z,23.35
2022-11-14T10:16:32.472Z,20.80
2022-11-14T10:19:38.665Z,21.98
2022-11-14T10:22:39.757Z,21.58
2022-11-14T10:25:30.818Z,22.65
2022-11-14T10:28:29.946Z,18.88
2022-11-14T10:31:31.825Z,19.23
2022-11-14T10:34:17.359Z,17.48
2022-11-14T10:36:55.831Z,18.88
2022-11-14T10:39:39.439Z,18.35
2022-11-14T10:42:25.770Z,15.02
2022-11-14T10:45:02.072Z,17.50
2022-11-14T10:47:38.866Z,15.50
2022-11-14T10:50:19.042Z,15.80
2022-11-14T10:52:47.562Z,17.13
2022-11-14T10:55:17.052Z,14.85
2022-11-14T10:57:46.059Z,17.13
2022-11-14T11:00:13.918Z,18.45
2022-11-14T11:02:55.498Z,16.80
2022-11-14T11:05:25.187Z,16.58
2022-11-14T11:08:36.027Z,15.40
2022-11-14T11:11:17.877Z,14.15
2022-11-14T11:13:56.396Z,17.55
2022-11-14T11:16:25.063Z,15.65
2022-11-14T11:18:51.800Z,15.43
2022-11-14T11:21:23.310Z,14.75
2022-11-14T11:23:57.576Z,17.70
2022-11-14T11:26:30.133Z,15.95
2022-11-14T11:29:02.578Z,16.15
2022-11-14T11:34:10.372Z,14.07
2022-11-14T11:36:43.836Z,17.30
2022-11-14T11:39:27.907Z,16.17
2022-11-14T11:42:13.255Z,19.20
2022-11-14T11:44:49.717Z,16.85
2022-11-14T11:47:19.069Z,15.75
2022-11-14T11:49:54.236Z,16.00
2022-11-14T11:52:31.220Z,17.17
2022-11-14T11:55:08.829Z,17.65
2022-11-14T11:57:56.741Z,15.93
2022-11-14T12:00:23.822Z,17.00
2022-11-14T12:02:52.608Z,15.95
2022-11-14T12:05:25.556Z,14.50
2022-11-14T12:07:52.084Z,14.55
2022-11-14T12:10:26.596Z,14.43
2022-11-14T12:13:23.366Z,13.63
2022-11-14T12:16:27.836Z,13.95
2022-11-14T12:18:57.679Z,16.00
2022-11-14T12:21:34.856Z,15.25
2022-11-14T12:24:36.638Z,14.25
2022-11-14T12:27:12.478Z,14.82
2022-11-14T12:30:01.470Z,12.80
2022-11-14T12:32:33.177Z,11.52
2022-11-14T12:35:14.191Z,11.50
2022-11-14T12:37:48.127Z,12.98
2022-11-14T12:40:29.122Z,11.55
2022-11-14T12:42:57.730Z,12.90
2022-11-14T12:45:36.674Z,14.20
2022-11-14T12:48:21.427Z,11.25
2022-11-14T12:50:48.280Z,14.50
2022-11-14T12:53:36.024Z,12.90
2022-11-14T12:56:05.447Z,11.82
2022-11-14T12:58:56.681Z,13.00
2022-11-14T13:01:59.061Z,11.90
2022-11-14T13:04:32.914Z,12.70
2022-11-14T13:07:14.564Z,12.45
2022-11-14T13:09:59.916Z,11.60
2022-11-14T13:12:53.413Z,13.18
2022-11-14T13:16:01.726Z,10.85
2022-11-14T13:18:46.896Z,11.25
2022-11-14T13:21:39.655Z,11.48
2022-11-14T13:24:10.281Z,12.50
2022-11-14T13:26:41.506Z,13.18
2022-11-14T13:29:08.299Z,10.95
2022-11-14T13:31:47.758Z,10.80
2022-11-14T13:34:32.835Z,11.32
2022-11-14T13:37:21.745Z,12.00
2022-11-14T13:40:27.228Z,10.90
2022-11-14T13:43:30.148Z,9.82
2022-11-14T13:46:10.292Z,9.88
2022-11-14T13:49:04.590Z,11.02
2022-11-14T13:51:48.224Z,10.70
2022-11-14T13:54:18.255Z,11.32
2022-11-14T13:57:15.280Z,11.85
2022-11-14T13:59:51.526Z,10.68
2022-11-14T14:02:20.963Z,11.65
2022-11-14T14:05:01.823Z,9.25
2022-11-14T14:07:48.361Z,10.98
2022-11-14T14:10:41.197Z,9.82
2022-11-14T14:13:30.116Z,9.75
2022-11-14T14:16:07.089Z,13.02
2022-11-14T14:18:43.933Z,10.20
2022-11-14T14:21:58.953Z,9.32
2022-11-14T14:24:46.310Z,10.80
2022-11-14T14:27:37.161Z,12.75
2022-11-14T14:30:17.578Z,11.63
2022-11-14T14:32:44.568Z,10.10
2022-11-14T14:35:21.577Z,10.02
2022-11-14T14:37:53.547Z,10.80
2022-11-14T14:40:28.883Z,9.45
2022-11-14T14:42:59.380Z,9.60
2022-11-14T14:45:29.199Z,8.77
2022-11-14T14:48:03.217Z,8.50
2022-11-14T14:50:47.768Z,10.65
2022-11-14T14:53:26.567Z,10.15
2022-11-14T14:55:57.362Z,10.40
2022-11-14T14:58:26.618Z,9.18
2022-11-14T15:00:57.538Z,8.57
2022-11-14T15:03:27.710Z,8.85
2022-11-14T15:06:05.508Z,8.50
2022-11-14T15:08:37.562Z,9.40
2022-11-14T15:11:05.623Z,9.10
2022-11-14T15:13:33.882Z,11.40
2022-11-14T15:16:01.872Z,9.38
2022-11-14T15:18:31.409Z,10.90
2022-11-14T15:21:23.794Z,9.02
2022-11-14T15:24:02.715Z,10.93
2022-11-14T15:26:31.484Z,11.40
2022-11-14T15:29:20.882Z,10.82
2022-11-14T15:31:50.126Z,13.43
2022-11-14T15:34:40.484Z,13.93
2022-11-14T15:37:07.263Z,12.65
2022-11-14T15:39:33.964Z,11.23
2022-11-14T15:42:28.879Z,11.80
2022-11-14T15:44:56.085Z,11.52
2022-11-14T15:47:28.560Z,10.93
2022-11-14T15:50:02.372Z,12.43
2022-11-14T15:52:34.716Z,11.18
2022-11-14T15:55:01.580Z,8.55
2022-11-14T15:57:28.308Z,10.35
2022-11-14T15:59:55.121Z,10.82
2022-11-14T16:02:28.788Z,8.10
2022-11-14T16:04:57.734Z,9.90
2022-11-14T16:07:24.617Z,9.55
2022-11-14T16:09:51.369Z,10.98
2022-11-14T16:12:18.105Z,12.60
2022-11-14T16:14:45.015Z,12.73
2022-11-14T16:17:17.053Z,10.82
2022-11-14T16:19:44.293Z,10.32
2022-11-14T16:22:17.249Z,9.30
2022-11-14T16:24:44.090Z,11.50
2022-11-14T16:27:10.737Z,10.63
2022-11-14T16:29:37.341Z,10.10
2022-11-14T16:32:04.097Z,11.65
2022-11-14T16:34:30.793Z,10.90
2022-11-14T16:36:59.891Z,10.93
2022-11-14T16:39:26.728Z,9.73
2022-11-14T16:41:53.377Z,10.18
2022-11-14T16:44:20.056Z,9.20
2022-11-14T16:46:46.820Z,10.18
2022-11-14T16:49:15.586Z,10.52
2022-11-14T16:51:48.800Z,11.80
2022-11-14T16:54:17.916Z,11.68
2022-11-14T16:56:44.678Z,10.25
2022-11-14T16:59:11.609Z,10.93
2022-11-14T17:01:38.544Z,9.82
2022-11-14T17:04:05.770Z,11.23
2022-11-14T17:06:32.467Z,7.97
2022-11-14T17:09:00.341Z,11.10
2022-11-14T17:11:27.464Z,11.73
2022-11-14T17:13:56.188Z,12.10
2022-11-14T17:16:23.796Z,12.40
2022-11-14T17:18:54.686Z,10.90
2022-11-14T17:21:22.277Z,11.82
2022-11-14T17:24:02.632Z,11.05
2022-11-14T17:26:29.581Z,9.85
2022-11-14T17:28:56.555Z,11.88
2022-11-14T17:31:23.189Z,9.73
2022-11-14T17:33:54.966Z,23.27
2022-11-14T17:36:22.810Z,19.77
2022-11-14T17:38:49.475Z,11.80
2022-11-14T17:41:16.212Z,9.70
2022-11-14T17:43:43.420Z,8.85
2022-11-14T17:46:15.685Z,10.93
2022-11-14T17:48:44.690Z,9.43
2022-11-14T17:51:14.003Z,9.05
2022-11-14T17:53:41.278Z,8.63
2022-11-14T17:56:11.102Z,6.93
2022-11-14T17:58:37.748Z,8.65
2022-11-14T18:01:10.380Z,9.55
2022-11-14T18:03:37.090Z,9.27
2022-11-14T18:06:07.664Z,8.93
2022-11-14T18:08:35.836Z,8.38
2022-11-14T18:11:04.227Z,8.38
2022-11-14T18:13:32.194Z,7.63
2022-11-14T18:16:04.515Z,9.05
2022-11-14T18:18:33.294Z,7.90
2022-11-14T18:21:07.498Z,8.23
2022-11-14T18:23:35.698Z,6.75
2022-11-14T18:26:13.864Z,8.40
2022-11-14T18:28:41.725Z,8.02
2022-11-14T18:31:11.015Z,9.05
2022-11-14T18:33:38.853Z,8.07
2022-11-14T18:36:08.897Z,8.15
2022-11-14T18:38:35.630Z,10.15
2022-11-14T18:41:03.761Z,11.30
2022-11-14T18:43:32.728Z,7.88
2022-11-14T18:46:17.851Z,8.50
2022-11-14T18:48:47.314Z,8.52
2022-11-14T18:51:22.600Z,8.40
2022-11-14T18:53:51.251Z,7.82
2022-11-14T18:56:20.392Z,8.00
2022-11-14T18:58:47.737Z,9.10
2022-11-14T19:01:23.818Z,13.10
2022-11-14T19:03:51.474Z,7.22
2022-11-14T19:06:18.093Z,7.95
2022-11-14T19:08:45.122Z,9.38
2022-11-14T19:11:33.132Z,10.68
2022-11-14T19:14:04.604Z,8.85
2022-11-14T19:16:32.647Z,6.93
2022-11-14T19:19:00.108Z,11.07
2022-11-14T19:21:27.645Z,9.90
2022-11-14T19:23:54.650Z,11.00
2022-11-14T19:26:22.178Z,9.00
2022-11-14T19:28:49.335Z,8.85
2022-11-14T19:31:16.777Z,9.27
2022-11-14T19:33:44.902Z,8.30
2022-11-14T19:36:14.128Z,7.80
2022-11-14T19:38:40.990Z,10.27
2022-11-14T19:41:16.058Z,9.40
2022-11-14T19:43:43.502Z,8.60
2022-11-14T19:46:10.511Z,8.48
2022-11-14T19:48:38.732Z,8.13
2022-11-14T19:51:11.749Z,9.20
2022-11-14T19:53:40.157Z,6.82
2022-11-14T19:56:15.304Z,9.45
2022-11-14T19:58:43.662Z,9.18
2022-11-14T20:01:12.522Z,8.00
2022-11-14T20:03:39.905Z,9.85
2022-11-14T20:06:25.188Z,8.52
2022-11-14T20:08:53.029Z,8.07
2022-11-14T20:11:20.178Z,8.85
2022-11-14T20:13:47.208Z,8.98
2022-11-14T20:16:19.621Z,9.23
2022-11-14T20:21:27.261Z,9.18
2022-11-14T20:23:54.242Z,9.57
2022-11-14T20:26:21.615Z,9.13
2022-11-14T20:28:50.573Z,8.25
2022-11-14T20:31:19.523Z,9.73
2022-11-14T20:33:47.888Z,8.10
2022-11-14T20:36:17.983Z,10.75
2022-11-14T20:38:44.722Z,8.57
2022-11-14T20:41:12.673Z,12.25
2022-11-14T20:43:39.677Z,9.45
2022-11-14T20:46:15.053Z,9.20
2022-11-14T20:48:42.415Z,9.38
2022-11-14T20:51:09.159Z,9.52
2022-11-14T20:53:36.057Z,10.07
2022-11-14T20:56:03.976Z,10.98
2022-11-14T20:58:31.545Z,9.35
2022-11-14T21:00:58.449Z,8.00
2022-11-14T21:03:25.355Z,9.55
2022-11-14T21:05:52.588Z,10.93
2022-11-14T21:08:19.522Z,10.32
2022-11-14T21:10:49.179Z,11.63
2022-11-14T21:13:39.770Z,9.85
2022-11-14T21:16:09.544Z,10.20
2022-11-14T21:18:38.324Z,9.95
2022-11-14T21:21:06.455Z,11.15
2022-11-14T21:23:34.296Z,11.50
2022-11-14T21:26:15.203Z,11.00
2022-11-14T21:28:44.167Z,10.45
2022-11-14T21:31:13.943Z,11.15
2022-11-14T21:33:40.651Z,9.73
2022-11-14T21:36:30.217Z,10.30
2022-11-14T21:38:56.146Z,9.80
2022-11-14T21:41:24.830Z,10.32
2022-11-14T21:43:56.812Z,10.77
2022-11-14T21:46:23.859Z,11.43
2022-11-14T21:48:50.669Z,9.13
2022-11-14T21:51:20.084Z,9.82
2022-11-14T21:53:48.860Z,11.00
2022-11-14T21:56:24.281Z,8.85
2022-11-14T21:59:11.817Z,8.68
2022-11-14T22:02:05.101Z,8.63
2022-11-14T22:04:32.226Z,9.88
2022-11-14T22:07:04.559Z,11.52
2022-11-14T22:11:58.607Z,10.43
2022-11-14T22:14:25.736Z,9.02
2022-11-14T22:16:52.392Z,8.85
2022-11-14T22:19:19.121Z,8.50
2022-11-14T22:21:45.927Z,8.90
2022-11-14T22:24:12.556Z,11.35
2022-11-14T22:26:39.816Z,7.97
2022-11-14T22:29:07.565Z,8.52
2022-11-14T22:31:35.014Z,9.65
2022-11-14T22:34:01.850Z,9.30
2022-11-14T22:36:28.542Z,10.32
2022-11-14T22:38:56.643Z,8.35
2022-11-14T22:41:31.830Z,9.60
2022-11-14T22:43:59.739Z,10.25
2022-11-14T22:46:27.137Z,9.30
2022-11-14T22:48:54.431Z,11.35
2022-11-14T22:51:23.222Z,10.27
2022-11-14T22:53:52.582Z,9.05
2022-11-14T22:56:21.956Z,10.55
2022-11-14T22:58:49.131Z,10.77
2022-11-14T23:01:24.754Z,11.18
2022-11-14T23:03:59.583Z,8.80
2022-11-14T23:06:30.256Z,7.75
2022-11-14T23:08:57.690Z,8.32
2022-11-14T23:11:29.894Z,9.88
2022-11-14T23:13:57.814Z,7.60
2022-11-14T23:16:26.723Z,8.88
2022-11-14T23:18:57.925Z,8.75
2022-11-14T23:21:30.489Z,9.32
2022-11-14T23:24:03.280Z,10.45
2022-11-14T23:26:31.185Z,10.10
2022-11-14T23:28:57.987Z,7.88
2022-11-14T23:31:25.311Z,8.02
2022-11-14T23:33:54.796Z,8.70
2022-11-14T23:36:21.730Z,7.55
2022-11-14T23:38:48.498Z,8.05
2022-11-14T23:41:21.181Z,9.45
2022-11-14T23:43:47.759Z,8.77
2022-11-14T23:46:14.748Z,9.52
2022-11-14T23:48:41.388Z,10.18
2022-11-14T23:51:08.051Z,7.18
2022-11-14T23:53:34.702Z,7.00
2022-11-14T23:56:02.291Z,8.32
2022-11-14T23:58:30.149Z,8.38
